Puerto Plata, Dominican Republic
Current Conditions -  °F | °C
As of 2:00 PM on Monday 20 Oct 2014 (Local Time) from MDPP Reporting Station
Broken Clouds Broken Clouds  
Wind Chill: 88°   Ceiling: 30000
Heat Index: 102°   Visibility: 6mi
Dew Point: 79°   Wind: 14mph
Humidity: 75%   Direction: 60°ENE
Pressure: 29.91"   Gusts: NA
Location:  19.8°N, 70.7°W
Report Text: MDPP 201800Z 06012KT 9999 FEW018CB FEW020 BKN300 31/26 Q1013 CB/S/SW
Loading
Personal Weather Stations






























Interactive Weather Map
Tropical Storm Tracking
New forecast layout! Learn more

10-Day Weather Forecast

Advertisements
Track Severe Weather on mobile